sensor_id;sensor_type;location;lat;lon;timestamp;temperature;humidity
6178;DHT22;3122;48.208;11.174;2023-11-21T00:01:30;6.60;1.00
6178;DHT22;3122;48.208;11.174;2023-11-21T00:06:31;6.70;1.00
6178;DHT22;3122;48.208;11.174;2023-11-21T00:11:31;6.60;1.00
6178;DHT22;3122;48.208;11.174;2023-11-21T00:16:32;6.60;1.00
6178;DHT22;3122;48.208;11.174;2023-11-21T00:21:33;6.70;1.00
6178;DHT22;3122;48.208;11.174;2023-11-21T00:26:33;6.80;1.00
6178;DHT22;3122;48.208;11.174;2023-11-21T00:31:37;6.80;1.00
6178;DHT22;3122;48.208;11.174;2023-11-21T00:36:37;6.90;1.00
6178;DHT22;3122;48.208;11.174;2023-11-21T00:41:38;6.90;1.00
6178;DHT22;3122;48.208;11.174;2023-11-21T00:46:39;6.90;1.00
6178;DHT22;3122;48.208;11.174;2023-11-21T00:51:39;6.90;1.00
6178;DHT22;3122;48.208;11.174;2023-11-21T00:56:40;6.90;1.00
6178;DHT22;3122;48.208;11.174;2023-11-21T01:01:40;6.80;1.00
6178;DHT22;3122;48.208;11.174;2023-11-21T01:06:41;6.70;1.00
6178;DHT22;3122;48.208;11.174;2023-11-21T01:11:41;6.70;1.00
6178;DHT22;3122;48.208;11.174;2023-11-21T01:16:43;6.70;1.00
6178;DHT22;3122;48.208;11.174;2023-11-21T01:21:43;6.60;1.00
6178;DHT22;3122;48.208;11.174;2023-11-21T01:26:44;6.80;1.00
6178;DHT22;3122;48.208;11.174;2023-11-21T01:31:47;6.60;1.00
6178;DHT22;3122;48.208;11.174;2023-11-21T01:36:47;6.70;1.00
6178;DHT22;3122;48.208;11.174;2023-11-21T01:41:48;6.70;1.00
6178;DHT22;3122;48.208;11.174;2023-11-21T01:46:48;6.70;1.00
6178;DHT22;3122;48.208;11.174;2023-11-21T01:51:50;6.80;1.00
6178;DHT22;3122;48.208;11.174;2023-11-21T01:56:51;6.60;1.00
6178;DHT22;3122;48.208;11.174;2023-11-21T02:01:52;6.50;1.00
6178;DHT22;3122;48.208;11.174;2023-11-21T02:06:52;6.40;1.00
6178;DHT22;3122;48.208;11.174;2023-11-21T02:11:54;6.50;1.00
6178;DHT22;3122;48.208;11.174;2023-11-21T02:16:55;6.40;1.00
6178;DHT22;3122;48.208;11.174;2023-11-21T02:21:58;6.40;1.00
6178;DHT22;3122;48.208;11.174;2023-11-21T02:27:01;6.40;1.00
6178;DHT22;3122;48.208;11.174;2023-11-21T02:32:01;6.40;1.00
6178;DHT22;3122;48.208;11.174;2023-11-21T02:37:02;6.30;1.00
6178;DHT22;3122;48.208;11.174;2023-11-21T02:42:03;6.40;1.00
6178;DHT22;3122;48.208;11.174;2023-11-21T02:47:04;6.40;1.00
6178;DHT22;3122;48.208;11.174;2023-11-21T02:52:05;6.30;1.00
6178;DHT22;3122;48.208;11.174;2023-11-21T02:57:05;6.30;1.00
6178;DHT22;3122;48.208;11.174;2023-11-21T03:02:06;6.30;1.00
6178;DHT22;3122;48.208;11.174;2023-11-21T03:07:09;6.40;1.00
6178;DHT22;3122;48.208;11.174;2023-11-21T03:12:10;6.30;1.00
6178;DHT22;3122;48.208;11.174;2023-11-21T03:17:12;6.40;1.00
6178;DHT22;3122;48.208;11.174;2023-11-21T03:22:12;6.40;1.00
6178;DHT22;3122;48.208;11.174;2023-11-21T03:27:13;6.50;1.00
6178;DHT22;3122;48.208;11.174;2023-11-21T03:32:14;6.40;1.00
6178;DHT22;3122;48.208;11.174;2023-11-21T03:37:14;6.30;1.00
6178;DHT22;3122;48.208;11.174;2023-11-21T03:42:15;6.40;1.00
6178;DHT22;3122;48.208;11.174;2023-11-21T03:47:16;6.40;1.00
6178;DHT22;3122;48.208;11.174;2023-11-21T03:52:16;6.40;1.00
6178;DHT22;3122;48.208;11.174;2023-11-21T03:57:17;6.40;1.00
6178;DHT22;3122;48.208;11.174;2023-11-21T04:02:17;6.50;1.00
6178;DHT22;3122;48.208;11.174;2023-11-21T04:07:18;6.60;1.00
6178;DHT22;3122;48.208;11.174;2023-11-21T04:12:18;6.60;1.00
6178;DHT22;3122;48.208;11.174;2023-11-21T04:17:19;6.60;1.00
6178;DHT22;3122;48.208;11.174;2023-11-21T04:22:20;6.40;1.00
6178;DHT22;3122;48.208;11.174;2023-11-21T04:27:20;6.40;1.00
6178;DHT22;3122;48.208;11.174;2023-11-21T04:32:21;6.40;1.00
6178;DHT22;3122;48.208;11.174;2023-11-21T04:37:22;6.40;1.00
6178;DHT22;3122;48.208;11.174;2023-11-21T04:42:23;6.20;1.00
6178;DHT22;3122;48.208;11.174;2023-11-21T04:47:23;6.20;1.00
6178;DHT22;3122;48.208;11.174;2023-11-21T04:52:24;6.30;1.00
6178;DHT22;3122;48.208;11.174;2023-11-21T04:57:24;6.20;1.00
6178;DHT22;3122;48.208;11.174;2023-11-21T05:02:25;6.10;1.00
6178;DHT22;3122;48.208;11.174;2023-11-21T05:07:25;6.20;1.00
6178;DHT22;3122;48.208;11.174;2023-11-21T05:12:31;6.10;1.00
6178;DHT22;3122;48.208;11.174;2023-11-21T05:17:41;6.10;1.00
6178;DHT22;3122;48.208;11.174;2023-11-21T05:22:44;6.10;1.00
6178;DHT22;3122;48.208;11.174;2023-11-21T05:27:48;6.10;1.00
6178;DHT22;3122;48.208;11.174;2023-11-21T05:32:48;6.10;1.00
6178;DHT22;3122;48.208;11.174;2023-11-21T05:37:50;6.10;1.00
6178;DHT22;3122;48.208;11.174;2023-11-21T05:42:51;6.00;1.00
6178;DHT22;3122;48.208;11.174;2023-11-21T05:47:52;5.90;1.00
6178;DHT22;3122;48.208;11.174;2023-11-21T05:52:52;5.90;1.00
6178;DHT22;3122;48.208;11.174;2023-11-21T05:57:53;5.90;1.00
6178;DHT22;3122;48.208;11.174;2023-11-21T06:02:54;5.90;1.00
6178;DHT22;3122;48.208;11.174;2023-11-21T06:07:55;5.90;1.00
6178;DHT22;3122;48.208;11.174;2023-11-21T06:12:59;5.80;1.00
6178;DHT22;3122;48.208;11.174;2023-11-21T06:17:59;5.80;1.00
6178;DHT22;3122;48.208;11.174;2023-11-21T06:23:00;5.80;1.00
6178;DHT22;3122;48.208;11.174;2023-11-21T06:28:03;5.80;1.00
6178;DHT22;3122;48.208;11.174;2023-11-21T06:33:04;5.70;1.00
6178;DHT22;3122;48.208;11.174;2023-11-21T06:38:07;5.80;1.00
6178;DHT22;3122;48.208;11.174;2023-11-21T06:43:09;5.70;1.00
6178;DHT22;3122;48.208;11.174;2023-11-21T06:48:10;5.70;1.00
6178;DHT22;3122;48.208;11.174;2023-11-21T06:53:10;5.70;1.00
6178;DHT22;3122;48.208;11.174;2023-11-21T06:58:11;5.70;1.00
6178;DHT22;3122;48.208;11.174;2023-11-21T07:03:12;5.70;1.00
6178;DHT22;3122;48.208;11.174;2023-11-21T07:08:12;5.70;1.00
6178;DHT22;3122;48.208;11.174;2023-11-21T07:13:13;5.60;1.00
6178;DHT22;3122;48.208;11.174;2023-11-21T07:18:13;5.60;1.00
6178;DHT22;3122;48.208;11.174;2023-11-21T07:23:14;5.50;1.00
6178;DHT22;3122;48.208;11.174;2023-11-21T07:28:16;5.60;1.00
6178;DHT22;3122;48.208;11.174;2023-11-21T07:33:16;5.60;1.00
6178;DHT22;3122;48.208;11.174;2023-11-21T07:38:17;5.60;1.00
6178;DHT22;3122;48.208;11.174;2023-11-21T07:43:18;5.70;1.00
6178;DHT22;3122;48.208;11.174;2023-11-21T07:48:19;5.80;1.00
6178;DHT22;3122;48.208;11.174;2023-11-21T07:53:20;5.80;1.00
6178;DHT22;3122;48.208;11.174;2023-11-21T07:58:22;5.80;1.00
6178;DHT22;3122;48.208;11.174;2023-11-21T08:03:23;6.00;1.00
6178;DHT22;3122;48.208;11.174;2023-11-21T08:08:24;6.00;1.00
6178;DHT22;3122;48.208;11.174;2023-11-21T08:13:25;6.20;1.00
6178;DHT22;3122;48.208;11.174;2023-11-21T08:18:26;6.30;1.00
6178;DHT22;3122;48.208;11.174;2023-11-21T08:23:27;6.30;1.00
6178;DHT22;3122;48.208;11.174;2023-11-21T08:28:27;6.50;1.00
6178;DHT22;3122;48.208;11.174;2023-11-21T08:33:28;6.60;1.00
6178;DHT22;3122;48.208;11.174;2023-11-21T08:38:28;6.60;1.00
6178;DHT22;3122;48.208;11.174;2023-11-21T08:43:29;6.60;1.00
6178;DHT22;3122;48.208;11.174;2023-11-21T08:48:31;6.70;1.00
6178;DHT22;3122;48.208;11.174;2023-11-21T08:53:31;6.80;1.00
6178;DHT22;3122;48.208;11.174;2023-11-21T08:58:32;6.90;1.00
6178;DHT22;3122;48.208;11.174;2023-11-21T09:03:33;6.90;1.00
6178;DHT22;3122;48.208;11.174;2023-11-21T09:08:34;6.90;1.00
6178;DHT22;3122;48.208;11.174;2023-11-21T09:13:35;6.90;1.00
6178;DHT22;3122;48.208;11.174;2023-11-21T09:18:36;6.90;1.00
6178;DHT22;3122;48.208;11.174;2023-11-21T09:23:37;7.00;1.00
6178;DHT22;3122;48.208;11.174;2023-11-21T09:28:37;7.00;1.00
6178;DHT22;3122;48.208;11.174;2023-11-21T09:33:38;7.00;1.00
6178;DHT22;3122;48.208;11.174;2023-11-21T09:38:39;7.10;1.00
6178;DHT22;3122;48.208;11.174;2023-11-21T09:43:39;7.20;1.00
6178;DHT22;3122;48.208;11.174;2023-11-21T09:48:40;7.20;1.00
6178;DHT22;3122;48.208;11.174;2023-11-21T09:53:42;7.30;1.00
6178;DHT22;3122;48.208;11.174;2023-11-21T09:58:45;7.10;1.00
6178;DHT22;3122;48.208;11.174;2023-11-21T10:03:46;7.20;1.00
6178;DHT22;3122;48.208;11.174;2023-11-21T10:08:47;7.20;1.00
6178;DHT22;3122;48.208;11.174;2023-11-21T10:13:53;7.20;1.00
6178;DHT22;3122;48.208;11.174;2023-11-21T10:18:55;7.20;1.00
6178;DHT22;3122;48.208;11.174;2023-11-21T10:23:58;7.30;1.00
6178;DHT22;3122;48.208;11.174;2023-11-21T10:29:00;7.40;1.00
6178;DHT22;3122;48.208;11.174;2023-11-21T10:34:17;7.30;1.00
6178;DHT22;3122;48.208;11.174;2023-11-21T10:39:19;7.40;1.00
6178;DHT22;3122;48.208;11.174;2023-11-21T10:44:21;7.60;1.00
6178;DHT22;3122;48.208;11.174;2023-11-21T10:49:26;7.70;1.00
6178;DHT22;3122;48.208;11.174;2023-11-21T10:54:27;7.80;1.00
6178;DHT22;3122;48.208;11.174;2023-11-21T10:59:30;7.60;1.00
6178;DHT22;3122;48.208;11.174;2023-11-21T11:04:31;7.70;1.00
6178;DHT22;3122;48.208;11.174;2023-11-21T11:09:32;7.70;1.00
6178;DHT22;3122;48.208;11.174;2023-11-21T11:14:34;7.90;1.00
6178;DHT22;3122;48.208;11.174;2023-11-21T11:19:35;7.90;1.00
6178;DHT22;3122;48.208;11.174;2023-11-21T11:24:53;7.90;1.00
6178;DHT22;3122;48.208;11.174;2023-11-21T11:35:26;8.00;1.00
6178;DHT22;3122;48.208;11.174;2023-11-21T11:40:53;8.10;1.00
6178;DHT22;3122;48.208;11.174;2023-11-21T11:45:57;8.10;1.00
6178;DHT22;3122;48.208;11.174;2023-11-21T11:51:09;8.00;1.00
6178;DHT22;3122;48.208;11.174;2023-11-21T11:56:31;8.10;1.00
6178;DHT22;3122;48.208;11.174;2023-11-21T12:01:34;8.10;1.00
6178;DHT22;3122;48.208;11.174;2023-11-21T12:06:35;8.30;1.00
6178;DHT22;3122;48.208;11.174;2023-11-21T12:11:36;8.20;1.00
6178;DHT22;3122;48.208;11.174;2023-11-21T12:16:37;8.10;1.00
6178;DHT22;3122;48.208;11.174;2023-11-21T12:21:38;8.10;1.00
6178;DHT22;3122;48.208;11.174;2023-11-21T12:26:42;8.10;1.00
6178;DHT22;3122;48.208;11.174;2023-11-21T12:31:43;8.30;1.00
6178;DHT22;3122;48.208;11.174;2023-11-21T12:36:43;8.50;1.00
6178;DHT22;3122;48.208;11.174;2023-11-21T12:41:45;8.40;1.00
6178;DHT22;3122;48.208;11.174;2023-11-21T12:46:46;8.50;1.00
6178;DHT22;3122;48.208;11.174;2023-11-21T12:51:47;8.70;1.00
6178;DHT22;3122;48.208;11.174;2023-11-21T12:56:49;8.50;1.00
6178;DHT22;3122;48.208;11.174;2023-11-21T13:01:50;8.40;1.00
6178;DHT22;3122;48.208;11.174;2023-11-21T13:06:51;8.40;1.00
6178;DHT22;3122;48.208;11.174;2023-11-21T13:12:00;8.50;1.00
6178;DHT22;3122;48.208;11.174;2023-11-21T13:17:03;8.40;1.00
6178;DHT22;3122;48.208;11.174;2023-11-21T13:22:04;8.60;1.00
6178;DHT22;3122;48.208;11.174;2023-11-21T13:27:05;8.50;1.00
6178;DHT22;3122;48.208;11.174;2023-11-21T13:32:07;8.50;1.00
6178;DHT22;3122;48.208;11.174;2023-11-21T13:37:12;8.50;1.00
6178;DHT22;3122;48.208;11.174;2023-11-21T13:42:13;8.40;1.00
6178;DHT22;3122;48.208;11.174;2023-11-21T13:47:14;8.20;1.00
6178;DHT22;3122;48.208;11.174;2023-11-21T13:52:15;8.20;1.00
6178;DHT22;3122;48.208;11.174;2023-11-21T13:57:15;8.10;1.00
6178;DHT22;3122;48.208;11.174;2023-11-21T14:02:16;8.20;1.00
6178;DHT22;3122;48.208;11.174;2023-11-21T14:07:18;8.10;1.00
6178;DHT22;3122;48.208;11.174;2023-11-21T14:12:35;8.00;1.00
6178;DHT22;3122;48.208;11.174;2023-11-21T14:17:39;7.90;1.00
6178;DHT22;3122;48.208;11.174;2023-11-21T14:22:41;8.00;1.00
6178;DHT22;3122;48.208;11.174;2023-11-21T14:27:42;8.00;1.00
6178;DHT22;3122;48.208;11.174;2023-11-21T14:32:43;8.00;1.00
6178;DHT22;3122;48.208;11.174;2023-11-21T14:37:43;8.10;1.00
6178;DHT22;3122;48.208;11.174;2023-11-21T14:42:44;8.00;1.00
6178;DHT22;3122;48.208;11.174;2023-11-21T14:47:48;8.00;1.00
6178;DHT22;3122;48.208;11.174;2023-11-21T14:52:58;8.00;1.00
6178;DHT22;3122;48.208;11.174;2023-11-21T14:57:59;7.80;1.00
6178;DHT22;3122;48.208;11.174;2023-11-21T15:03:04;7.40;1.00
6178;DHT22;3122;48.208;11.174;2023-11-21T15:08:05;7.40;1.00
6178;DHT22;3122;48.208;11.174;2023-11-21T15:13:20;7.40;1.00
6178;DHT22;3122;48.208;11.174;2023-11-21T15:18:23;7.50;1.00
6178;DHT22;3122;48.208;11.174;2023-11-21T15:23:25;7.50;1.00
6178;DHT22;3122;48.208;11.174;2023-11-21T15:28:25;7.40;1.00
6178;DHT22;3122;48.208;11.174;2023-11-21T15:33:26;7.20;1.00
6178;DHT22;3122;48.208;11.174;2023-11-21T15:38:27;7.00;1.00
6178;DHT22;3122;48.208;11.174;2023-11-21T15:43:28;7.00;1.00
6178;DHT22;3122;48.208;11.174;2023-11-21T15:48:29;7.10;1.00
6178;DHT22;3122;48.208;11.174;2023-11-21T15:53:31;7.10;1.00
6178;DHT22;3122;48.208;11.174;2023-11-21T15:58:32;7.00;1.00
6178;DHT22;3122;48.208;11.174;2023-11-21T16:03:34;7.00;1.00
6178;DHT22;3122;48.208;11.174;2023-11-21T16:08:36;7.00;1.00
6178;DHT22;3122;48.208;11.174;2023-11-21T16:13:36;7.00;1.00
6178;DHT22;3122;48.208;11.174;2023-11-21T16:18:38;7.00;1.00
6178;DHT22;3122;48.208;11.174;2023-11-21T16:23:39;7.00;1.00
6178;DHT22;3122;48.208;11.174;2023-11-21T16:28:40;6.90;1.00
6178;DHT22;3122;48.208;11.174;2023-11-21T16:33:41;7.00;1.00
6178;DHT22;3122;48.208;11.174;2023-11-21T16:38:42;7.00;1.00
6178;DHT22;3122;48.208;11.174;2023-11-21T16:43:43;6.90;1.00
6178;DHT22;3122;48.208;11.174;2023-11-21T16:48:44;6.90;1.00
6178;DHT22;3122;48.208;11.174;2023-11-21T16:53:44;6.80;1.00
6178;DHT22;3122;48.208;11.174;2023-11-21T16:58:45;6.80;1.00
6178;DHT22;3122;48.208;11.174;2023-11-21T17:03:46;6.80;1.00
6178;DHT22;3122;48.208;11.174;2023-11-21T17:08:46;6.70;1.00
6178;DHT22;3122;48.208;11.174;2023-11-21T17:13:47;6.80;1.00
6178;DHT22;3122;48.208;11.174;2023-11-21T17:18:47;6.70;1.00
6178;DHT22;3122;48.208;11.174;2023-11-21T17:23:48;6.70;1.00
6178;DHT22;3122;48.208;11.174;2023-11-21T17:28:49;6.60;1.00
6178;DHT22;3122;48.208;11.174;2023-11-21T17:33:50;6.50;1.00
6178;DHT22;3122;48.208;11.174;2023-11-21T17:38:51;6.50;1.00
6178;DHT22;3122;48.208;11.174;2023-11-21T17:43:53;6.50;1.00
6178;DHT22;3122;48.208;11.174;2023-11-21T17:48:54;6.50;1.00
6178;DHT22;3122;48.208;11.174;2023-11-21T17:53:54;6.60;1.00
6178;DHT22;3122;48.208;11.174;2023-11-21T17:59:01;6.50;1.00
6178;DHT22;3122;48.208;11.174;2023-11-21T18:04:03;6.40;1.00
6178;DHT22;3122;48.208;11.174;2023-11-21T18:09:05;6.50;1.00
6178;DHT22;3122;48.208;11.174;2023-11-21T18:14:08;6.40;1.00
6178;DHT22;3122;48.208;11.174;2023-11-21T18:19:10;6.50;1.00
6178;DHT22;3122;48.208;11.174;2023-11-21T18:24:11;6.40;1.00
6178;DHT22;3122;48.208;11.174;2023-11-21T18:29:12;6.50;1.00
6178;DHT22;3122;48.208;11.174;2023-11-21T18:34:17;6.40;1.00
6178;DHT22;3122;48.208;11.174;2023-11-21T18:39:18;6.40;1.00
6178;DHT22;3122;48.208;11.174;2023-11-21T18:44:19;6.40;1.00
6178;DHT22;3122;48.208;11.174;2023-11-21T18:49:19;6.40;1.00
6178;DHT22;3122;48.208;11.174;2023-11-21T18:54:20;6.50;1.00
6178;DHT22;3122;48.208;11.174;2023-11-21T18:59:21;6.50;1.00
6178;DHT22;3122;48.208;11.174;2023-11-21T19:04:22;6.50;1.00
6178;DHT22;3122;48.208;11.174;2023-11-21T19:09:25;6.50;1.00
6178;DHT22;3122;48.208;11.174;2023-11-21T19:14:25;6.50;1.00
6178;DHT22;3122;48.208;11.174;2023-11-21T19:19:26;6.50;1.00
6178;DHT22;3122;48.208;11.174;2023-11-21T19:24:26;6.50;1.00
6178;DHT22;3122;48.208;11.174;2023-11-21T19:29:30;6.40;1.00
6178;DHT22;3122;48.208;11.174;2023-11-21T19:34:30;6.50;1.00
6178;DHT22;3122;48.208;11.174;2023-11-21T19:39:31;6.40;1.00
6178;DHT22;3122;48.208;11.174;2023-11-21T19:44:31;6.40;1.00
6178;DHT22;3122;48.208;11.174;2023-11-21T19:49:32;6.40;1.00
6178;DHT22;3122;48.208;11.174;2023-11-21T19:54:34;6.40;1.00
6178;DHT22;3122;48.208;11.174;2023-11-21T19:59:35;6.40;1.00
6178;DHT22;3122;48.208;11.174;2023-11-21T20:04:38;6.40;1.00
6178;DHT22;3122;48.208;11.174;2023-11-21T20:09:39;6.30;1.00
6178;DHT22;3122;48.208;11.174;2023-11-21T20:14:40;6.30;1.00
6178;DHT22;3122;48.208;11.174;2023-11-21T20:19:43;6.30;1.00
6178;DHT22;3122;48.208;11.174;2023-11-21T20:24:44;6.30;1.00
6178;DHT22;3122;48.208;11.174;2023-11-21T20:29:44;6.20;1.00
6178;DHT22;3122;48.208;11.174;2023-11-21T20:34:45;6.20;1.00
6178;DHT22;3122;48.208;11.174;2023-11-21T20:39:47;6.20;1.00
6178;DHT22;3122;48.208;11.174;2023-11-21T20:44:49;6.20;1.00
6178;DHT22;3122;48.208;11.174;2023-11-21T20:49:50;6.30;1.00
6178;DHT22;3122;48.208;11.174;2023-11-21T20:54:51;6.30;1.00
6178;DHT22;3122;48.208;11.174;2023-11-21T20:59:52;6.30;1.00
6178;DHT22;3122;48.208;11.174;2023-11-21T21:04:52;6.20;1.00
6178;DHT22;3122;48.208;11.174;2023-11-21T21:09:53;6.20;1.00
6178;DHT22;3122;48.208;11.174;2023-11-21T21:14:55;6.20;1.00
6178;DHT22;3122;48.208;11.174;2023-11-21T21:19:56;6.20;1.00
6178;DHT22;3122;48.208;11.174;2023-11-21T21:24:57;6.20;1.00
6178;DHT22;3122;48.208;11.174;2023-11-21T21:29:57;6.10;1.00
6178;DHT22;3122;48.208;11.174;2023-11-21T21:34:58;6.10;1.00
6178;DHT22;3122;48.208;11.174;2023-11-21T21:39:58;6.10;1.00
6178;DHT22;3122;48.208;11.174;2023-11-21T21:44:59;6.10;1.00
6178;DHT22;3122;48.208;11.174;2023-11-21T21:50:00;6.10;1.00
6178;DHT22;3122;48.208;11.174;2023-11-21T21:55:01;6.00;1.00
6178;DHT22;3122;48.208;11.174;2023-11-21T22:00:02;6.10;1.00
6178;DHT22;3122;48.208;11.174;2023-11-21T22:05:13;6.00;1.00
6178;DHT22;3122;48.208;11.174;2023-11-21T22:10:14;6.00;1.00
6178;DHT22;3122;48.208;11.174;2023-11-21T22:15:15;6.10;1.00
6178;DHT22;3122;48.208;11.174;2023-11-21T22:20:16;6.00;1.00
6178;DHT22;3122;48.208;11.174;2023-11-21T22:25:16;6.00;1.00
6178;DHT22;3122;48.208;11.174;2023-11-21T22:30:18;6.00;1.00
6178;DHT22;3122;48.208;11.174;2023-11-21T22:35:19;6.00;1.00
6178;DHT22;3122;48.208;11.174;2023-11-21T22:40:20;6.00;1.00
6178;DHT22;3122;48.208;11.174;2023-11-21T22:45:21;6.00;1.00
6178;DHT22;3122;48.208;11.174;2023-11-21T22:50:23;6.00;1.00
6178;DHT22;3122;48.208;11.174;2023-11-21T22:55:23;6.00;1.00
6178;DHT22;3122;48.208;11.174;2023-11-21T23:00:24;6.00;1.00
6178;DHT22;3122;48.208;11.174;2023-11-21T23:05:29;6.00;1.00
6178;DHT22;3122;48.208;11.174;2023-11-21T23:10:31;6.00;1.00
6178;DHT22;3122;48.208;11.174;2023-11-21T23:15:31;6.00;1.00
6178;DHT22;3122;48.208;11.174;2023-11-21T23:20:32;5.90;1.00
6178;DHT22;3122;48.208;11.174;2023-11-21T23:25:32;6.00;1.00
6178;DHT22;3122;48.208;11.174;2023-11-21T23:30:33;6.00;1.00
6178;DHT22;3122;48.208;11.174;2023-11-21T23:35:34;6.00;1.00
6178;DHT22;3122;48.208;11.174;2023-11-21T23:40:35;5.90;1.00
6178;DHT22;3122;48.208;11.174;2023-11-21T23:45:35;5.90;1.00
6178;DHT22;3122;48.208;11.174;2023-11-21T23:50:36;5.90;1.00
6178;DHT22;3122;48.208;11.174;2023-11-21T23:55:36;5.80;1.00
